sensor_id;sensor_type;location;lat;lon;timestamp;P1;durP1;ratioP1;P2;durP2;ratioP2
52380;SDS011;38310;52.796;6.942;2022-11-09T00:01:22;6.75;;;3.45;;
52380;SDS011;38310;52.796;6.942;2022-11-09T00:03:53;8.88;;;2.85;;
52380;SDS011;38310;52.796;6.942;2022-11-09T00:06:20;4.78;;;2.75;;
52380;SDS011;38310;52.796;6.942;2022-11-09T00:08:46;4.88;;;2.97;;
52380;SDS011;38310;52.796;6.942;2022-11-09T00:11:12;5.38;;;2.70;;
52380;SDS011;38310;52.796;6.942;2022-11-09T00:13:38;5.85;;;3.15;;
52380;SDS011;38310;52.796;6.942;2022-11-09T00:16:05;5.63;;;2.92;;
52380;SDS011;38310;52.796;6.942;2022-11-09T00:18:33;7.05;;;2.97;;
52380;SDS011;38310;52.796;6.942;2022-11-09T00:21:10;5.78;;;2.83;;
52380;SDS011;38310;52.796;6.942;2022-11-09T00:23:37;7.15;;;3.20;;
52380;SDS011;38310;52.796;6.942;2022-11-09T00:26:04;8.32;;;3.05;;
52380;SDS011;38310;52.796;6.942;2022-11-09T00:28:32;6.55;;;2.72;;
52380;SDS011;38310;52.796;6.942;2022-11-09T00:30:58;5.05;;;2.83;;
52380;SDS011;38310;52.796;6.942;2022-11-09T00:33:25;8.13;;;2.90;;
52380;SDS011;38310;52.796;6.942;2022-11-09T00:35:51;4.20;;;2.63;;
52380;SDS011;38310;52.796;6.942;2022-11-09T00:38:17;5.18;;;3.13;;
52380;SDS011;38310;52.796;6.942;2022-11-09T00:40:42;7.53;;;2.72;;
52380;SDS011;38310;52.796;6.942;2022-11-09T00:43:08;5.50;;;3.05;;
52380;SDS011;38310;52.796;6.942;2022-11-09T00:45:34;7.82;;;3.25;;
52380;SDS011;38310;52.796;6.942;2022-11-09T00:48:00;7.63;;;2.97;;
52380;SDS011;38310;52.796;6.942;2022-11-09T00:50:26;7.30;;;3.30;;
52380;SDS011;38310;52.796;6.942;2022-11-09T00:52:52;6.05;;;2.63;;
52380;SDS011;38310;52.796;6.942;2022-11-09T00:55:18;6.38;;;3.00;;
52380;SDS011;38310;52.796;6.942;2022-11-09T00:57:48;9.50;;;2.75;;
52380;SDS011;38310;52.796;6.942;2022-11-09T01:00:20;5.05;;;2.55;;
52380;SDS011;38310;52.796;6.942;2022-11-09T01:02:48;6.88;;;2.70;;
52380;SDS011;38310;52.796;6.942;2022-11-09T01:05:14;6.18;;;3.00;;
52380;SDS011;38310;52.796;6.942;2022-11-09T01:07:40;4.45;;;2.90;;
52380;SDS011;38310;52.796;6.942;2022-11-09T01:10:06;6.65;;;2.63;;
52380;SDS011;38310;52.796;6.942;2022-11-09T01:12:33;8.13;;;2.83;;
52380;SDS011;38310;52.796;6.942;2022-11-09T01:14:59;5.85;;;2.80;;
52380;SDS011;38310;52.796;6.942;2022-11-09T01:17:25;5.70;;;2.72;;
52380;SDS011;38310;52.796;6.942;2022-11-09T01:19:50;4.63;;;2.85;;
52380;SDS011;38310;52.796;6.942;2022-11-09T01:22:16;6.32;;;2.72;;
52380;SDS011;38310;52.796;6.942;2022-11-09T01:24:45;6.80;;;2.78;;
52380;SDS011;38310;52.796;6.942;2022-11-09T01:27:11;6.25;;;2.75;;
52380;SDS011;38310;52.796;6.942;2022-11-09T01:29:37;7.10;;;2.90;;
52380;SDS011;38310;52.796;6.942;2022-11-09T01:32:03;3.30;;;2.05;;
52380;SDS011;38310;52.796;6.942;2022-11-09T01:34:29;5.63;;;2.95;;
52380;SDS011;38310;52.796;6.942;2022-11-09T01:36:55;3.97;;;2.58;;
52380;SDS011;38310;52.796;6.942;2022-11-09T01:39:21;6.60;;;2.40;;
52380;SDS011;38310;52.796;6.942;2022-11-09T01:41:46;7.80;;;2.88;;
52380;SDS011;38310;52.796;6.942;2022-11-09T01:44:19;4.68;;;2.58;;
52380;SDS011;38310;52.796;6.942;2022-11-09T01:46:49;6.35;;;3.05;;
52380;SDS011;38310;52.796;6.942;2022-11-09T01:49:23;7.82;;;2.78;;
52380;SDS011;38310;52.796;6.942;2022-11-09T01:51:59;5.10;;;2.70;;
52380;SDS011;38310;52.796;6.942;2022-11-09T01:54:29;6.05;;;3.10;;
52380;SDS011;38310;52.796;6.942;2022-11-09T01:57:01;4.82;;;2.42;;
52380;SDS011;38310;52.796;6.942;2022-11-09T01:59:34;7.57;;;2.88;;
52380;SDS011;38310;52.796;6.942;2022-11-09T02:02:04;5.93;;;3.08;;
52380;SDS011;38310;52.796;6.942;2022-11-09T02:04:48;5.63;;;2.70;;
52380;SDS011;38310;52.796;6.942;2022-11-09T02:07:18;5.95;;;2.53;;
52380;SDS011;38310;52.796;6.942;2022-11-09T02:09:59;5.68;;;2.65;;
52380;SDS011;38310;52.796;6.942;2022-11-09T02:12:28;7.28;;;2.60;;
52380;SDS011;38310;52.796;6.942;2022-11-09T02:14:57;4.82;;;2.58;;
52380;SDS011;38310;52.796;6.942;2022-11-09T02:17:25;5.80;;;2.35;;
52380;SDS011;38310;52.796;6.942;2022-11-09T02:19:51;5.03;;;2.95;;
52380;SDS011;38310;52.796;6.942;2022-11-09T02:22:17;6.20;;;2.60;;
52380;SDS011;38310;52.796;6.942;2022-11-09T02:24:42;7.13;;;3.20;;
52380;SDS011;38310;52.796;6.942;2022-11-09T02:27:11;7.47;;;2.83;;
52380;SDS011;38310;52.796;6.942;2022-11-09T02:29:38;9.90;;;3.17;;
52380;SDS011;38310;52.796;6.942;2022-11-09T02:32:11;12.82;;;2.80;;
52380;SDS011;38310;52.796;6.942;2022-11-09T02:34:41;7.28;;;3.00;;
52380;SDS011;38310;52.796;6.942;2022-11-09T02:37:07;6.55;;;2.80;;
52380;SDS011;38310;52.796;6.942;2022-11-09T02:39:32;5.70;;;2.58;;
52380;SDS011;38310;52.796;6.942;2022-11-09T02:42:00;6.60;;;2.65;;
52380;SDS011;38310;52.796;6.942;2022-11-09T02:44:29;7.82;;;3.30;;
52380;SDS011;38310;52.796;6.942;2022-11-09T02:47:03;4.93;;;2.60;;
52380;SDS011;38310;52.796;6.942;2022-11-09T02:49:29;8.07;;;3.17;;
52380;SDS011;38310;52.796;6.942;2022-11-09T02:51:54;8.27;;;2.75;;
52380;SDS011;38310;52.796;6.942;2022-11-09T02:54:20;6.13;;;2.50;;
52380;SDS011;38310;52.796;6.942;2022-11-09T02:56:46;7.38;;;2.85;;
52380;SDS011;38310;52.796;6.942;2022-11-09T02:59:12;7.43;;;2.70;;
52380;SDS011;38310;52.796;6.942;2022-11-09T03:01:37;8.27;;;3.22;;
52380;SDS011;38310;52.796;6.942;2022-11-09T03:04:03;5.22;;;2.30;;
52380;SDS011;38310;52.796;6.942;2022-11-09T03:06:29;7.07;;;2.65;;
52380;SDS011;38310;52.796;6.942;2022-11-09T03:09:05;6.32;;;2.85;;
52380;SDS011;38310;52.796;6.942;2022-11-09T03:11:34;7.00;;;2.80;;
52380;SDS011;38310;52.796;6.942;2022-11-09T03:14:00;5.05;;;2.70;;
52380;SDS011;38310;52.796;6.942;2022-11-09T03:16:26;6.68;;;2.60;;
52380;SDS011;38310;52.796;6.942;2022-11-09T03:18:52;7.35;;;2.25;;
52380;SDS011;38310;52.796;6.942;2022-11-09T03:21:18;8.82;;;2.90;;
52380;SDS011;38310;52.796;6.942;2022-11-09T03:23:46;8.50;;;2.38;;
52380;SDS011;38310;52.796;6.942;2022-11-09T03:26:12;5.13;;;2.70;;
52380;SDS011;38310;52.796;6.942;2022-11-09T03:28:38;6.38;;;2.42;;
52380;SDS011;38310;52.796;6.942;2022-11-09T03:31:05;5.63;;;2.50;;
52380;SDS011;38310;52.796;6.942;2022-11-09T03:33:31;6.43;;;2.28;;
52380;SDS011;38310;52.796;6.942;2022-11-09T03:35:57;10.05;;;3.10;;
52380;SDS011;38310;52.796;6.942;2022-11-09T03:38:23;5.03;;;2.35;;
52380;SDS011;38310;52.796;6.942;2022-11-09T03:40:48;5.88;;;3.35;;
52380;SDS011;38310;52.796;6.942;2022-11-09T03:43:14;5.45;;;2.65;;
52380;SDS011;38310;52.796;6.942;2022-11-09T03:45:40;4.72;;;2.60;;
52380;SDS011;38310;52.796;6.942;2022-11-09T03:48:05;4.63;;;2.55;;
52380;SDS011;38310;52.796;6.942;2022-11-09T03:50:32;8.23;;;2.72;;
52380;SDS011;38310;52.796;6.942;2022-11-09T03:52:59;8.73;;;2.90;;
52380;SDS011;38310;52.796;6.942;2022-11-09T03:55:25;5.70;;;3.00;;
52380;SDS011;38310;52.796;6.942;2022-11-09T03:57:52;6.95;;;2.55;;
52380;SDS011;38310;52.796;6.942;2022-11-09T04:00:19;5.18;;;2.58;;
52380;SDS011;38310;52.796;6.942;2022-11-09T04:02:46;6.82;;;2.83;;
52380;SDS011;38310;52.796;6.942;2022-11-09T04:05:12;3.65;;;2.30;;
52380;SDS011;38310;52.796;6.942;2022-11-09T04:07:45;5.05;;;2.53;;
52380;SDS011;38310;52.796;6.942;2022-11-09T04:10:16;7.15;;;2.42;;
52380;SDS011;38310;52.796;6.942;2022-11-09T04:12:43;5.93;;;2.38;;
52380;SDS011;38310;52.796;6.942;2022-11-09T04:15:09;6.35;;;2.75;;
52380;SDS011;38310;52.796;6.942;2022-11-09T04:17:35;8.18;;;2.88;;
52380;SDS011;38310;52.796;6.942;2022-11-09T04:20:01;5.30;;;2.67;;
52380;SDS011;38310;52.796;6.942;2022-11-09T04:22:27;11.40;;;3.15;;
52380;SDS011;38310;52.796;6.942;2022-11-09T04:24:53;5.32;;;2.80;;
52380;SDS011;38310;52.796;6.942;2022-11-09T04:27:18;7.10;;;2.70;;
52380;SDS011;38310;52.796;6.942;2022-11-09T04:29:44;7.32;;;3.10;;
52380;SDS011;38310;52.796;6.942;2022-11-09T04:32:10;9.02;;;2.92;;
52380;SDS011;38310;52.796;6.942;2022-11-09T04:34:36;7.10;;;2.53;;
52380;SDS011;38310;52.796;6.942;2022-11-09T04:37:01;5.63;;;2.67;;
52380;SDS011;38310;52.796;6.942;2022-11-09T04:39:27;7.53;;;2.90;;
52380;SDS011;38310;52.796;6.942;2022-11-09T04:41:53;7.70;;;2.42;;
52380;SDS011;38310;52.796;6.942;2022-11-09T04:44:18;8.00;;;2.78;;
52380;SDS011;38310;52.796;6.942;2022-11-09T04:46:44;5.25;;;2.70;;
52380;SDS011;38310;52.796;6.942;2022-11-09T04:49:10;6.88;;;2.90;;
52380;SDS011;38310;52.796;6.942;2022-11-09T04:51:35;6.90;;;3.05;;
52380;SDS011;38310;52.796;6.942;2022-11-09T04:54:01;8.80;;;3.08;;
52380;SDS011;38310;52.796;6.942;2022-11-09T04:56:27;6.22;;;2.72;;
52380;SDS011;38310;52.796;6.942;2022-11-09T04:58:52;8.07;;;2.92;;
52380;SDS011;38310;52.796;6.942;2022-11-09T05:01:18;5.43;;;2.88;;
52380;SDS011;38310;52.796;6.942;2022-11-09T05:03:44;6.22;;;3.10;;
52380;SDS011;38310;52.796;6.942;2022-11-09T05:06:09;4.88;;;2.50;;
52380;SDS011;38310;52.796;6.942;2022-11-09T05:08:54;8.10;;;3.22;;
52380;SDS011;38310;52.796;6.942;2022-11-09T05:11:20;7.15;;;3.05;;
52380;SDS011;38310;52.796;6.942;2022-11-09T05:13:47;4.75;;;2.42;;
52380;SDS011;38310;52.796;6.942;2022-11-09T05:16:13;6.03;;;3.45;;
52380;SDS011;38310;52.796;6.942;2022-11-09T05:18:41;6.85;;;3.08;;
52380;SDS011;38310;52.796;6.942;2022-11-09T05:21:07;5.70;;;2.55;;
52380;SDS011;38310;52.796;6.942;2022-11-09T05:23:33;7.50;;;2.58;;
52380;SDS011;38310;52.796;6.942;2022-11-09T05:26:17;8.95;;;2.50;;
52380;SDS011;38310;52.796;6.942;2022-11-09T05:28:43;7.15;;;2.50;;
52380;SDS011;38310;52.796;6.942;2022-11-09T05:31:09;5.60;;;2.35;;
52380;SDS011;38310;52.796;6.942;2022-11-09T05:33:35;8.82;;;3.25;;
52380;SDS011;38310;52.796;6.942;2022-11-09T05:36:00;8.23;;;2.58;;
52380;SDS011;38310;52.796;6.942;2022-11-09T05:38:26;5.80;;;2.40;;
52380;SDS011;38310;52.796;6.942;2022-11-09T05:40:52;6.38;;;2.47;;
52380;SDS011;38310;52.796;6.942;2022-11-09T05:43:18;7.00;;;2.33;;
52380;SDS011;38310;52.796;6.942;2022-11-09T05:45:45;6.22;;;2.90;;
52380;SDS011;38310;52.796;6.942;2022-11-09T05:48:11;6.40;;;2.83;;
52380;SDS011;38310;52.796;6.942;2022-11-09T05:50:38;6.40;;;2.90;;
52380;SDS011;38310;52.796;6.942;2022-11-09T05:53:05;5.60;;;2.83;;
52380;SDS011;38310;52.796;6.942;2022-11-09T05:55:31;7.07;;;2.75;;
52380;SDS011;38310;52.796;6.942;2022-11-09T05:57:57;8.02;;;2.55;;
52380;SDS011;38310;52.796;6.942;2022-11-09T06:00:23;6.10;;;2.70;;
52380;SDS011;38310;52.796;6.942;2022-11-09T06:02:49;8.20;;;2.70;;
52380;SDS011;38310;52.796;6.942;2022-11-09T06:05:15;5.65;;;2.53;;
52380;SDS011;38310;52.796;6.942;2022-11-09T06:07:41;6.22;;;2.67;;
52380;SDS011;38310;52.796;6.942;2022-11-09T06:10:07;5.63;;;1.88;;
52380;SDS011;38310;52.796;6.942;2022-11-09T06:12:36;9.63;;;3.17;;
52380;SDS011;38310;52.796;6.942;2022-11-09T06:15:02;6.07;;;2.53;;
52380;SDS011;38310;52.796;6.942;2022-11-09T06:17:28;6.05;;;2.60;;
52380;SDS011;38310;52.796;6.942;2022-11-09T06:19:54;28.45;;;4.07;;
52380;SDS011;38310;52.796;6.942;2022-11-09T06:22:19;6.72;;;3.10;;
52380;SDS011;38310;52.796;6.942;2022-11-09T06:24:45;8.57;;;3.40;;
52380;SDS011;38310;52.796;6.942;2022-11-09T06:27:11;6.15;;;2.80;;
52380;SDS011;38310;52.796;6.942;2022-11-09T06:29:36;8.20;;;2.58;;
52380;SDS011;38310;52.796;6.942;2022-11-09T06:32:02;8.20;;;2.20;;
52380;SDS011;38310;52.796;6.942;2022-11-09T06:34:28;10.57;;;2.72;;
52380;SDS011;38310;52.796;6.942;2022-11-09T06:36:54;7.55;;;2.70;;
52380;SDS011;38310;52.796;6.942;2022-11-09T06:39:20;9.55;;;2.10;;
52380;SDS011;38310;52.796;6.942;2022-11-09T06:41:46;7.93;;;2.70;;
52380;SDS011;38310;52.796;6.942;2022-11-09T06:44:12;7.93;;;2.70;;
52380;SDS011;38310;52.796;6.942;2022-11-09T06:46:38;5.63;;;2.60;;
52380;SDS011;38310;52.796;6.942;2022-11-09T06:49:03;10.07;;;2.88;;
52380;SDS011;38310;52.796;6.942;2022-11-09T06:51:29;7.40;;;2.47;;
52380;SDS011;38310;52.796;6.942;2022-11-09T06:53:55;8.68;;;3.03;;
52380;SDS011;38310;52.796;6.942;2022-11-09T06:56:20;13.65;;;2.95;;
52380;SDS011;38310;52.796;6.942;2022-11-09T06:58:46;8.27;;;3.00;;
52380;SDS011;38310;52.796;6.942;2022-11-09T07:01:12;5.95;;;2.60;;
52380;SDS011;38310;52.796;6.942;2022-11-09T07:03:41;9.18;;;3.17;;
52380;SDS011;38310;52.796;6.942;2022-11-09T07:06:08;8.07;;;2.90;;
52380;SDS011;38310;52.796;6.942;2022-11-09T07:08:35;8.23;;;2.80;;
52380;SDS011;38310;52.796;6.942;2022-11-09T07:11:04;8.13;;;3.55;;
52380;SDS011;38310;52.796;6.942;2022-11-09T07:13:31;7.97;;;2.35;;
52380;SDS011;38310;52.796;6.942;2022-11-09T07:15:57;9.02;;;3.08;;
52380;SDS011;38310;52.796;6.942;2022-11-09T07:18:23;10.00;;;2.88;;
52380;SDS011;38310;52.796;6.942;2022-11-09T07:20:48;11.40;;;3.10;;
52380;SDS011;38310;52.796;6.942;2022-11-09T07:23:14;11.40;;;2.83;;
52380;SDS011;38310;52.796;6.942;2022-11-09T07:25:40;13.43;;;3.33;;
52380;SDS011;38310;52.796;6.942;2022-11-09T07:28:10;14.38;;;3.22;;
52380;SDS011;38310;52.796;6.942;2022-11-09T07:30:36;8.35;;;2.92;;
52380;SDS011;38310;52.796;6.942;2022-11-09T07:33:03;13.40;;;3.13;;
52380;SDS011;38310;52.796;6.942;2022-11-09T07:35:36;10.38;;;3.13;;
52380;SDS011;38310;52.796;6.942;2022-11-09T07:38:02;9.77;;;3.15;;
52380;SDS011;38310;52.796;6.942;2022-11-09T07:40:27;7.03;;;2.97;;
52380;SDS011;38310;52.796;6.942;2022-11-09T07:42:57;7.32;;;3.42;;
52380;SDS011;38310;52.796;6.942;2022-11-09T07:45:24;7.45;;;3.08;;
52380;SDS011;38310;52.796;6.942;2022-11-09T07:47:53;6.68;;;3.15;;
52380;SDS011;38310;52.796;6.942;2022-11-09T07:50:20;11.02;;;2.72;;
52380;SDS011;38310;52.796;6.942;2022-11-09T07:52:46;9.02;;;2.90;;
52380;SDS011;38310;52.796;6.942;2022-11-09T07:55:11;11.70;;;2.70;;
52380;SDS011;38310;52.796;6.942;2022-11-09T07:57:37;9.57;;;3.30;;
52380;SDS011;38310;52.796;6.942;2022-11-09T08:00:03;11.10;;;3.00;;
52380;SDS011;38310;52.796;6.942;2022-11-09T08:02:29;8.63;;;2.95;;
52380;SDS011;38310;52.796;6.942;2022-11-09T08:04:55;9.52;;;3.42;;
52380;SDS011;38310;52.796;6.942;2022-11-09T08:07:20;12.15;;;3.00;;
52380;SDS011;38310;52.796;6.942;2022-11-09T08:09:47;7.07;;;3.25;;
52380;SDS011;38310;52.796;6.942;2022-11-09T08:12:13;15.32;;;4.53;;
52380;SDS011;38310;52.796;6.942;2022-11-09T08:14:39;9.30;;;2.67;;
52380;SDS011;38310;52.796;6.942;2022-11-09T08:17:05;8.90;;;2.85;;
52380;SDS011;38310;52.796;6.942;2022-11-09T08:19:30;10.60;;;3.65;;
52380;SDS011;38310;52.796;6.942;2022-11-09T08:21:56;9.35;;;2.85;;
52380;SDS011;38310;52.796;6.942;2022-11-09T08:24:23;8.30;;;2.85;;
52380;SDS011;38310;52.796;6.942;2022-11-09T08:26:49;6.72;;;3.63;;
52380;SDS011;38310;52.796;6.942;2022-11-09T08:29:15;7.50;;;4.32;;
52380;SDS011;38310;52.796;6.942;2022-11-09T08:31:40;13.70;;;3.63;;
52380;SDS011;38310;52.796;6.942;2022-11-09T08:34:09;8.77;;;2.67;;
52380;SDS011;38310;52.796;6.942;2022-11-09T08:36:36;8.93;;;3.17;;
52380;SDS011;38310;52.796;6.942;2022-11-09T08:39:02;7.15;;;2.65;;
52380;SDS011;38310;52.796;6.942;2022-11-09T08:41:28;9.00;;;2.63;;
52380;SDS011;38310;52.796;6.942;2022-11-09T08:43:53;13.20;;;3.10;;
52380;SDS011;38310;52.796;6.942;2022-11-09T08:46:19;9.52;;;3.22;;
52380;SDS011;38310;52.796;6.942;2022-11-09T08:48:45;9.82;;;2.85;;
52380;SDS011;38310;52.796;6.942;2022-11-09T08:51:11;12.57;;;3.40;;
52380;SDS011;38310;52.796;6.942;2022-11-09T08:53:37;9.23;;;3.42;;
52380;SDS011;38310;52.796;6.942;2022-11-09T08:56:04;11.18;;;3.22;;
52380;SDS011;38310;52.796;6.942;2022-11-09T08:58:31;6.85;;;2.92;;
52380;SDS011;38310;52.796;6.942;2022-11-09T09:00:57;8.45;;;3.00;;
52380;SDS011;38310;52.796;6.942;2022-11-09T09:03:23;10.82;;;2.92;;
52380;SDS011;38310;52.796;6.942;2022-11-09T09:05:49;9.52;;;3.72;;
52380;SDS011;38310;52.796;6.942;2022-11-09T09:08:15;13.30;;;3.67;;
52380;SDS011;38310;52.796;6.942;2022-11-09T09:10:45;11.75;;;3.40;;
52380;SDS011;38310;52.796;6.942;2022-11-09T09:13:11;10.27;;;3.45;;
52380;SDS011;38310;52.796;6.942;2022-11-09T09:15:37;14.00;;;3.85;;
52380;SDS011;38310;52.796;6.942;2022-11-09T09:18:03;13.70;;;3.88;;
52380;SDS011;38310;52.796;6.942;2022-11-09T09:20:30;12.05;;;4.38;;
52380;SDS011;38310;52.796;6.942;2022-11-09T09:22:56;11.35;;;5.28;;
52380;SDS011;38310;52.796;6.942;2022-11-09T09:25:23;14.50;;;5.93;;
52380;SDS011;38310;52.796;6.942;2022-11-09T09:27:49;13.43;;;5.47;;
52380;SDS011;38310;52.796;6.942;2022-11-09T09:30:15;13.68;;;6.18;;
52380;SDS011;38310;52.796;6.942;2022-11-09T09:32:41;12.35;;;5.43;;
52380;SDS011;38310;52.796;6.942;2022-11-09T09:35:07;10.70;;;5.38;;
52380;SDS011;38310;52.796;6.942;2022-11-09T09:37:33;14.18;;;6.35;;
52380;SDS011;38310;52.796;6.942;2022-11-09T09:39:59;14.43;;;5.13;;
52380;SDS011;38310;52.796;6.942;2022-11-09T09:42:35;8.57;;;4.22;;
52380;SDS011;38310;52.796;6.942;2022-11-09T09:45:12;11.57;;;4.47;;
52380;SDS011;38310;52.796;6.942;2022-11-09T09:47:47;10.65;;;3.47;;
52380;SDS011;38310;52.796;6.942;2022-11-09T09:50:29;7.70;;;3.72;;
52380;SDS011;38310;52.796;6.942;2022-11-09T09:53:21;8.00;;;3.70;;
52380;SDS011;38310;52.796;6.942;2022-11-09T09:56:10;9.50;;;3.78;;
52380;SDS011;38310;52.796;6.942;2022-11-09T09:58:46;12.88;;;3.53;;
52380;SDS011;38310;52.796;6.942;2022-11-09T10:01:19;9.45;;;3.38;;
52380;SDS011;38310;52.796;6.942;2022-11-09T10:03:48;10.35;;;3.70;;
52380;SDS011;38310;52.796;6.942;2022-11-09T10:09:18;8.13;;;3.35;;
52380;SDS011;38310;52.796;6.942;2022-11-09T10:19:57;10.90;;;3.63;;
52380;SDS011;38310;52.796;6.942;2022-11-09T10:25:38;12.38;;;3.80;;
52380;SDS011;38310;52.796;6.942;2022-11-09T10:28:03;9.85;;;4.07;;
52380;SDS011;38310;52.796;6.942;2022-11-09T10:30:34;10.25;;;4.03;;
52380;SDS011;38310;52.796;6.942;2022-11-09T10:35:48;10.00;;;4.10;;
52380;SDS011;38310;52.796;6.942;2022-11-09T10:38:34;8.88;;;3.50;;
52380;SDS011;38310;52.796;6.942;2022-11-09T10:41:16;11.02;;;3.60;;
52380;SDS011;38310;52.796;6.942;2022-11-09T10:43:52;16.20;;;3.97;;
52380;SDS011;38310;52.796;6.942;2022-11-09T10:46:17;9.43;;;3.63;;
52380;SDS011;38310;52.796;6.942;2022-11-09T10:48:45;9.05;;;3.45;;
52380;SDS011;38310;52.796;6.942;2022-11-09T10:54:19;8.48;;;3.50;;
52380;SDS011;38310;52.796;6.942;2022-11-09T10:56:51;8.45;;;3.28;;
52380;SDS011;38310;52.796;6.942;2022-11-09T11:07:23;13.35;;;3.08;;
52380;SDS011;38310;52.796;6.942;2022-11-09T11:09:49;12.32;;;3.95;;
52380;SDS011;38310;52.796;6.942;2022-11-09T11:12:16;9.57;;;3.15;;
52380;SDS011;38310;52.796;6.942;2022-11-09T11:14:46;9.48;;;2.80;;
52380;SDS011;38310;52.796;6.942;2022-11-09T11:17:45;7.97;;;3.50;;
52380;SDS011;38310;52.796;6.942;2022-11-09T11:25:53;9.90;;;2.83;;
52380;SDS011;38310;52.796;6.942;2022-11-09T11:30:48;9.55;;;2.50;;
52380;SDS011;38310;52.796;6.942;2022-11-09T11:33:15;9.38;;;3.10;;
52380;SDS011;38310;52.796;6.942;2022-11-09T11:43:49;9.85;;;3.13;;
52380;SDS011;38310;52.796;6.942;2022-11-09T11:53:16;11.15;;;3.92;;
52380;SDS011;38310;52.796;6.942;2022-11-09T12:03:49;10.23;;;3.40;;
52380;SDS011;38310;52.796;6.942;2022-11-09T12:14:38;7.07;;;2.50;;
52380;SDS011;38310;52.796;6.942;2022-11-09T12:17:19;8.70;;;2.47;;
52380;SDS011;38310;52.796;6.942;2022-11-09T12:22:47;12.27;;;2.80;;
52380;SDS011;38310;52.796;6.942;2022-11-09T12:28:29;8.38;;;3.25;;
52380;SDS011;38310;52.796;6.942;2022-11-09T12:31:22;9.45;;;2.55;;
52380;SDS011;38310;52.796;6.942;2022-11-09T12:34:01;7.15;;;2.30;;
52380;SDS011;38310;52.796;6.942;2022-11-09T12:36:54;6.75;;;2.20;;
52380;SDS011;38310;52.796;6.942;2022-11-09T12:42:12;9.60;;;2.05;;
52380;SDS011;38310;52.796;6.942;2022-11-09T12:47:43;13.85;;;2.60;;
52380;SDS011;38310;52.796;6.942;2022-11-09T12:50:11;6.72;;;2.35;;
52380;SDS011;38310;52.796;6.942;2022-11-09T12:52:42;10.32;;;2.85;;
52380;SDS011;38310;52.796;6.942;2022-11-09T12:55:14;7.60;;;2.30;;
52380;SDS011;38310;52.796;6.942;2022-11-09T12:57:44;8.93;;;2.35;;
52380;SDS011;38310;52.796;6.942;2022-11-09T13:02:59;6.25;;;2.47;;
52380;SDS011;38310;52.796;6.942;2022-11-09T13:05:29;7.43;;;2.25;;
52380;SDS011;38310;52.796;6.942;2022-11-09T13:08:00;10.23;;;2.65;;
52380;SDS011;38310;52.796;6.942;2022-11-09T13:13:03;7.10;;;2.63;;
52380;SDS011;38310;52.796;6.942;2022-11-09T13:21:44;9.52;;;2.67;;
52380;SDS011;38310;52.796;6.942;2022-11-09T13:23:51;7.15;;;2.10;;
52380;SDS011;38310;52.796;6.942;2022-11-09T13:29:09;11.05;;;3.03;;
52380;SDS011;38310;52.796;6.942;2022-11-09T13:32:00;7.75;;;2.55;;
52380;SDS011;38310;52.796;6.942;2022-11-09T13:34:39;5.60;;;2.45;;
52380;SDS011;38310;52.796;6.942;2022-11-09T13:39:58;4.72;;;2.05;;
52380;SDS011;38310;52.796;6.942;2022-11-09T13:47:51;9.10;;;3.03;;
52380;SDS011;38310;52.796;6.942;2022-11-09T13:50:26;7.20;;;2.08;;
52380;SDS011;38310;52.796;6.942;2022-11-09T13:53:00;10.65;;;2.58;;
52380;SDS011;38310;52.796;6.942;2022-11-09T13:55:37;8.95;;;2.58;;
52380;SDS011;38310;52.796;6.942;2022-11-09T13:58:15;6.55;;;2.75;;
52380;SDS011;38310;52.796;6.942;2022-11-09T14:00:47;7.07;;;2.90;;
52380;SDS011;38310;52.796;6.942;2022-11-09T14:03:18;10.48;;;2.53;;
52380;SDS011;38310;52.796;6.942;2022-11-09T14:05:48;6.73;;;2.40;;
52380;SDS011;38310;52.796;6.942;2022-11-09T14:08:21;5.35;;;2.25;;
52380;SDS011;38310;52.796;6.942;2022-11-09T14:19:02;7.32;;;3.25;;
52380;SDS011;38310;52.796;6.942;2022-11-09T14:21:46;8.00;;;2.40;;
52380;SDS011;38310;52.796;6.942;2022-11-09T14:24:28;8.63;;;2.90;;
52380;SDS011;38310;52.796;6.942;2022-11-09T14:29:50;6.68;;;3.25;;
52380;SDS011;38310;52.796;6.942;2022-11-09T14:32:34;5.50;;;3.08;;
52380;SDS011;38310;52.796;6.942;2022-11-09T14:35:43;8.23;;;2.80;;
52380;SDS011;38310;52.796;6.942;2022-11-09T14:37:55;5.47;;;3.13;;
52380;SDS011;38310;52.796;6.942;2022-11-09T14:40:27;5.35;;;2.72;;
52380;SDS011;38310;52.796;6.942;2022-11-09T14:46:04;7.05;;;2.40;;
52380;SDS011;38310;52.796;6.942;2022-11-09T14:48:31;6.55;;;2.38;;
52380;SDS011;38310;52.796;6.942;2022-11-09T14:50:59;9.32;;;2.35;;
52380;SDS011;38310;52.796;6.942;2022-11-09T14:53:27;4.93;;;2.63;;
52380;SDS011;38310;52.796;6.942;2022-11-09T14:56:01;4.53;;;2.40;;
52380;SDS011;38310;52.796;6.942;2022-11-09T14:58:29;6.13;;;2.50;;
52380;SDS011;38310;52.796;6.942;2022-11-09T15:04:26;4.30;;;2.20;;
52380;SDS011;38310;52.796;6.942;2022-11-09T15:06:33;6.18;;;2.22;;
52380;SDS011;38310;52.796;6.942;2022-11-09T15:09:00;5.20;;;2.47;;
52380;SDS011;38310;52.796;6.942;2022-11-09T15:11:47;7.30;;;2.10;;
52380;SDS011;38310;52.796;6.942;2022-11-09T15:14:20;6.90;;;2.25;;
52380;SDS011;38310;52.796;6.942;2022-11-09T15:19:50;7.97;;;2.70;;
52380;SDS011;38310;52.796;6.942;2022-11-09T15:25:34;7.20;;;2.25;;
52380;SDS011;38310;52.796;6.942;2022-11-09T15:28:24;6.00;;;2.20;;
52380;SDS011;38310;52.796;6.942;2022-11-09T15:33:23;6.75;;;2.63;;
52380;SDS011;38310;52.796;6.942;2022-11-09T15:38:36;8.20;;;3.10;;
52380;SDS011;38310;52.796;6.942;2022-11-09T15:41:10;7.05;;;3.00;;
52380;SDS011;38310;52.796;6.942;2022-11-09T15:43:37;10.15;;;3.53;;
52380;SDS011;38310;52.796;6.942;2022-11-09T15:46:03;3.70;;;2.50;;
52380;SDS011;38310;52.796;6.942;2022-11-09T15:48:29;5.72;;;2.55;;
52380;SDS011;38310;52.796;6.942;2022-11-09T15:50:55;8.13;;;2.40;;
52380;SDS011;38310;52.796;6.942;2022-11-09T15:53:21;6.35;;;2.42;;
52380;SDS011;38310;52.796;6.942;2022-11-09T15:55:48;6.70;;;2.70;;
52380;SDS011;38310;52.796;6.942;2022-11-09T15:58:15;8.80;;;2.85;;
52380;SDS011;38310;52.796;6.942;2022-11-09T16:00:42;6.88;;;3.10;;
52380;SDS011;38310;52.796;6.942;2022-11-09T16:03:11;7.07;;;2.85;;
52380;SDS011;38310;52.796;6.942;2022-11-09T16:05:37;6.35;;;2.38;;
52380;SDS011;38310;52.796;6.942;2022-11-09T16:08:03;5.00;;;2.67;;
52380;SDS011;38310;52.796;6.942;2022-11-09T16:10:31;4.80;;;2.60;;
52380;SDS011;38310;52.796;6.942;2022-11-09T16:13:01;5.07;;;2.25;;
52380;SDS011;38310;52.796;6.942;2022-11-09T16:15:29;6.00;;;2.60;;
52380;SDS011;38310;52.796;6.942;2022-11-09T16:17:55;4.95;;;2.75;;
52380;SDS011;38310;52.796;6.942;2022-11-09T16:20:21;6.47;;;2.72;;
52380;SDS011;38310;52.796;6.942;2022-11-09T16:22:46;7.95;;;2.72;;
52380;SDS011;38310;52.796;6.942;2022-11-09T16:25:12;5.60;;;2.90;;
52380;SDS011;38310;52.796;6.942;2022-11-09T16:27:38;9.45;;;2.97;;
52380;SDS011;38310;52.796;6.942;2022-11-09T16:30:05;8.55;;;2.42;;
52380;SDS011;38310;52.796;6.942;2022-11-09T16:32:33;6.38;;;2.85;;
52380;SDS011;38310;52.796;6.942;2022-11-09T16:34:59;9.18;;;3.08;;
52380;SDS011;38310;52.796;6.942;2022-11-09T16:37:25;8.60;;;2.83;;
52380;SDS011;38310;52.796;6.942;2022-11-09T16:39:56;9.45;;;2.90;;
52380;SDS011;38310;52.796;6.942;2022-11-09T16:42:23;7.80;;;3.10;;
52380;SDS011;38310;52.796;6.942;2022-11-09T16:44:50;7.88;;;3.60;;
52380;SDS011;38310;52.796;6.942;2022-11-09T16:47:16;8.90;;;3.40;;
52380;SDS011;38310;52.796;6.942;2022-11-09T16:49:43;5.38;;;3.20;;
52380;SDS011;38310;52.796;6.942;2022-11-09T16:52:08;6.18;;;3.20;;
52380;SDS011;38310;52.796;6.942;2022-11-09T16:54:34;14.40;;;3.80;;
52380;SDS011;38310;52.796;6.942;2022-11-09T16:57:00;9.63;;;3.20;;
52380;SDS011;38310;52.796;6.942;2022-11-09T16:59:26;7.55;;;3.50;;
52380;SDS011;38310;52.796;6.942;2022-11-09T17:01:53;7.55;;;3.97;;
52380;SDS011;38310;52.796;6.942;2022-11-09T17:04:21;8.88;;;4.07;;